createdAt,value
2022-09-12T00:00:57.337Z,14.87
2022-09-12T00:01:57.366Z,14.85
2022-09-12T00:02:57.292Z,14.83
2022-09-12T00:03:57.272Z,14.83
2022-09-12T00:04:57.275Z,14.78
2022-09-12T00:05:57.241Z,14.75
2022-09-12T00:06:57.236Z,14.75
2022-09-12T00:07:57.262Z,14.78
2022-09-12T00:08:57.219Z,14.78
2022-09-12T00:09:57.213Z,14.75
2022-09-12T00:10:57.192Z,14.75
2022-09-12T00:11:57.167Z,14.72
2022-09-12T00:12:57.159Z,14.69
2022-09-12T00:13:57.170Z,14.69
2022-09-12T00:14:57.131Z,14.63
2022-09-12T00:15:57.140Z,14.63
2022-09-12T00:16:57.101Z,14.66
2022-09-12T00:17:57.081Z,14.64
2022-09-12T00:18:57.087Z,14.64
2022-09-12T00:19:57.060Z,14.64
2022-09-12T00:20:57.058Z,14.64
2022-09-12T00:21:57.041Z,14.61
2022-09-12T00:22:57.020Z,14.60
2022-09-12T00:23:57.019Z,14.57
2022-09-12T00:24:57.008Z,14.56
2022-09-12T00:25:56.988Z,14.56
2022-09-12T00:26:56.998Z,14.52
2022-09-12T00:27:57.056Z,14.52
2022-09-12T00:28:57.007Z,14.49
2022-09-12T00:29:56.937Z,14.48
2022-09-12T00:30:56.928Z,14.46
2022-09-12T00:31:56.973Z,14.45
2022-09-12T00:32:56.889Z,14.45
2022-09-12T00:33:56.886Z,14.42
2022-09-12T00:34:56.866Z,14.41
2022-09-12T00:35:56.886Z,14.38
2022-09-12T00:36:56.837Z,14.42
2022-09-12T00:37:56.853Z,14.39
2022-09-12T00:38:56.816Z,14.38
2022-09-12T00:39:56.843Z,14.41
2022-09-12T00:40:56.796Z,14.38
2022-09-12T00:41:56.766Z,14.38
2022-09-12T00:42:56.769Z,14.35
2022-09-12T00:43:56.768Z,14.35
2022-09-12T00:44:56.785Z,14.36
2022-09-12T00:45:56.926Z,14.38
2022-09-12T00:46:56.718Z,14.39
2022-09-12T00:47:56.687Z,14.36
2022-09-12T00:48:56.686Z,14.38
2022-09-12T00:49:56.675Z,14.35
2022-09-12T00:50:56.657Z,14.30
2022-09-12T00:51:56.634Z,14.27
2022-09-12T00:52:56.636Z,14.26
2022-09-12T00:53:56.640Z,14.23
2022-09-12T00:54:56.614Z,14.23
2022-09-12T00:55:56.598Z,14.20
2022-09-12T00:56:56.577Z,14.17
2022-09-12T00:57:56.554Z,14.16
2022-09-12T00:58:56.548Z,14.13
2022-09-12T00:59:56.536Z,14.16
2022-09-12T01:00:56.586Z,14.16
2022-09-12T01:01:56.608Z,14.16
2022-09-12T01:02:56.502Z,14.13
2022-09-12T01:03:56.535Z,14.16
2022-09-12T01:04:56.483Z,14.16
2022-09-12T01:05:56.510Z,14.12
2022-09-12T01:06:57.197Z,14.12
2022-09-12T01:07:57.350Z,14.12
2022-09-12T01:08:56.522Z,14.12
2022-09-12T01:09:56.571Z,14.11
2022-09-12T01:10:57.204Z,14.09
2022-09-12T01:11:56.410Z,14.06
2022-09-12T01:12:56.394Z,14.05
2022-09-12T01:13:56.384Z,14.04
2022-09-12T01:14:56.352Z,13.99
2022-09-12T01:15:56.335Z,13.99
2022-09-12T01:16:56.313Z,13.98
2022-09-12T01:17:56.302Z,13.96
2022-09-12T01:18:56.302Z,13.96
2022-09-12T01:19:56.281Z,13.93
2022-09-12T01:20:56.271Z,13.94
2022-09-12T01:21:56.263Z,13.93
2022-09-12T01:22:56.326Z,13.93
2022-09-12T01:23:56.223Z,13.91
2022-09-12T01:24:56.223Z,13.93
2022-09-12T01:25:56.200Z,13.93
2022-09-12T01:26:56.192Z,13.91
2022-09-12T01:27:56.177Z,13.91
2022-09-12T01:28:56.169Z,13.90
2022-09-12T01:29:56.170Z,13.87
2022-09-12T01:30:56.154Z,13.86
2022-09-12T01:31:56.242Z,13.86
2022-09-12T01:32:56.108Z,13.83
2022-09-12T01:33:56.128Z,13.81
2022-09-12T01:34:56.079Z,13.81
2022-09-12T01:35:56.083Z,13.80
2022-09-12T01:36:56.069Z,13.75
2022-09-12T01:37:56.037Z,13.75
2022-09-12T01:38:56.029Z,13.75
2022-09-12T01:39:56.082Z,13.75
2022-09-12T01:40:56.009Z,13.75
2022-09-12T01:41:55.991Z,13.75
2022-09-12T01:42:55.988Z,13.75
2022-09-12T01:43:55.960Z,13.72
2022-09-12T01:44:56.149Z,13.71
2022-09-12T01:45:56.028Z,13.68
2022-09-12T01:46:55.950Z,13.63
2022-09-12T01:47:55.914Z,13.61
2022-09-12T01:48:55.897Z,13.61
2022-09-12T01:49:55.886Z,13.59
2022-09-12T01:50:55.879Z,13.57
2022-09-12T01:51:55.886Z,13.54
2022-09-12T01:52:55.878Z,13.54
2022-09-12T01:53:55.833Z,13.50
2022-09-12T01:54:55.827Z,13.50
2022-09-12T01:55:55.819Z,13.50
2022-09-12T01:56:55.823Z,13.50
2022-09-12T01:57:55.846Z,13.48
2022-09-12T01:58:55.838Z,13.48
2022-09-12T01:59:55.767Z,13.46
2022-09-12T02:00:55.804Z,13.44
2022-09-12T02:01:55.791Z,13.46
2022-09-12T02:02:55.745Z,13.46
2022-09-12T02:03:55.709Z,13.46
2022-09-12T02:04:55.711Z,13.47
2022-09-12T02:05:55.686Z,13.46
2022-09-12T02:06:55.675Z,13.47
2022-09-12T02:07:55.644Z,13.48
2022-09-12T02:08:55.643Z,13.46
2022-09-12T02:09:55.664Z,13.43
2022-09-12T02:10:55.623Z,13.43
2022-09-12T02:11:55.604Z,13.39
2022-09-12T02:12:55.595Z,13.39
2022-09-12T02:15:12.203Z,13.38
2022-09-12T02:16:12.253Z,13.35
2022-09-12T02:17:12.179Z,13.36
2022-09-12T02:18:12.175Z,13.38
2022-09-12T02:19:12.145Z,13.36
2022-09-12T02:20:17.755Z,13.36
2022-09-12T02:21:13.157Z,13.38
2022-09-12T02:22:12.107Z,13.36
2022-09-12T02:23:12.123Z,13.38
2022-09-12T02:24:12.098Z,13.36
2022-09-12T02:25:12.086Z,13.36
2022-09-12T02:26:12.053Z,13.31
2022-09-12T02:27:12.036Z,13.32
2022-09-12T02:28:12.072Z,13.31
2022-09-12T02:29:12.007Z,13.28
2022-09-12T02:30:12.014Z,13.28
2022-09-12T02:31:12.001Z,13.29
2022-09-12T02:32:11.976Z,13.28
2022-09-12T02:33:12.225Z,13.29
2022-09-12T02:34:11.955Z,13.28
2022-09-12T02:35:11.938Z,13.29
2022-09-12T02:36:11.913Z,13.28
2022-09-12T02:37:11.912Z,13.28
2022-09-12T02:38:11.906Z,13.27
2022-09-12T02:39:11.884Z,13.27
2022-09-12T02:40:11.927Z,13.28
2022-09-12T02:41:11.859Z,13.25
2022-09-12T02:42:11.852Z,13.24
2022-09-12T02:43:11.824Z,13.22
2022-09-12T02:44:11.833Z,13.24
2022-09-12T02:45:11.836Z,13.21
2022-09-12T02:46:11.793Z,13.19
2022-09-12T02:47:11.780Z,13.17
2022-09-12T02:48:13.437Z,13.17
2022-09-12T02:49:11.742Z,13.17
2022-09-12T02:50:11.751Z,13.13
2022-09-12T02:51:11.713Z,13.12
2022-09-12T02:52:11.700Z,13.14
2022-09-12T02:53:11.705Z,13.16
2022-09-12T02:54:11.680Z,13.17
2022-09-12T02:55:11.670Z,13.21
2022-09-12T02:56:11.650Z,13.19
2022-09-12T02:57:11.647Z,13.19
2022-09-12T02:58:11.633Z,13.16
2022-09-12T02:59:11.629Z,13.17
2022-09-12T03:00:11.618Z,13.16
2022-09-12T03:01:11.613Z,13.14
2022-09-12T03:02:11.664Z,13.12
2022-09-12T03:03:11.570Z,13.09
2022-09-12T03:04:11.607Z,13.07
2022-09-12T03:05:11.608Z,13.04
2022-09-12T03:06:11.527Z,13.06
2022-09-12T03:07:11.517Z,13.04
2022-09-12T03:08:11.498Z,13.06
2022-09-12T03:09:11.476Z,13.07
2022-09-12T03:10:11.487Z,13.06
2022-09-12T03:11:11.550Z,13.06
2022-09-12T03:12:11.467Z,13.07
2022-09-12T03:13:11.465Z,13.04
2022-09-12T03:14:11.436Z,13.04
2022-09-12T03:15:11.428Z,13.03
2022-09-12T03:16:11.416Z,13.01
2022-09-12T03:17:11.386Z,12.99
2022-09-12T03:18:11.369Z,12.94
2022-09-12T03:19:11.355Z,12.89
2022-09-12T03:20:11.338Z,12.85
2022-09-12T03:21:11.324Z,12.84
2022-09-12T03:22:11.316Z,12.80
2022-09-12T03:23:11.298Z,12.80
2022-09-12T03:24:11.295Z,12.79
2022-09-12T03:25:11.312Z,12.76
2022-09-12T03:26:11.274Z,12.74
2022-09-12T03:27:11.257Z,12.73
2022-09-12T03:28:11.235Z,12.76
2022-09-12T03:29:11.245Z,12.74
2022-09-12T03:30:11.216Z,12.69
2022-09-12T03:31:11.214Z,12.67
2022-09-12T03:32:11.175Z,12.69
2022-09-12T03:33:11.196Z,12.69
2022-09-12T03:34:11.179Z,12.74
2022-09-12T03:35:14.985Z,12.79
2022-09-12T03:36:11.137Z,12.80
2022-09-12T03:37:11.143Z,12.84
2022-09-12T03:38:11.123Z,12.84
2022-09-12T03:39:11.107Z,12.81
2022-09-12T03:40:11.134Z,12.79
2022-09-12T03:41:11.087Z,12.80
2022-09-12T03:42:11.079Z,12.81
2022-09-12T03:43:11.052Z,12.84
2022-09-12T03:44:11.024Z,12.84
2022-09-12T03:45:11.024Z,12.81
2022-09-12T03:46:11.011Z,12.85
2022-09-12T03:47:11.484Z,12.84
2022-09-12T03:48:10.972Z,12.84
2022-09-12T03:49:10.965Z,12.81
2022-09-12T03:50:10.963Z,12.80
2022-09-12T03:51:10.944Z,12.79
2022-09-12T03:52:10.926Z,12.79
2022-09-12T03:53:14.083Z,12.76
2022-09-12T03:54:11.901Z,12.74
2022-09-12T03:55:10.876Z,12.74
2022-09-12T03:56:10.878Z,12.73
2022-09-12T03:57:10.859Z,12.70
2022-09-12T03:58:10.854Z,12.63
2022-09-12T03:59:10.830Z,12.62
2022-09-12T04:00:10.841Z,12.62
2022-09-12T04:01:10.859Z,12.63
2022-09-12T04:02:11.827Z,12.66
2022-09-12T04:03:10.791Z,12.63
2022-09-12T04:04:10.771Z,12.62
2022-09-12T04:05:10.781Z,12.62
2022-09-12T04:06:10.756Z,12.61
2022-09-12T04:07:10.738Z,12.59
2022-09-12T04:08:10.729Z,12.55
2022-09-12T04:09:10.773Z,12.55
2022-09-12T04:10:10.701Z,12.56
2022-09-12T04:11:10.721Z,12.56
2022-09-12T04:12:10.669Z,12.55
2022-09-12T04:13:10.658Z,12.58
2022-09-12T04:14:10.639Z,12.61
2022-09-12T04:15:10.637Z,12.61
2022-09-12T04:16:10.644Z,12.59
2022-09-12T04:17:10.595Z,12.58
2022-09-12T04:18:10.586Z,12.59
2022-09-12T04:19:10.577Z,12.61
2022-09-12T04:20:10.558Z,12.58
2022-09-12T04:21:10.556Z,12.55
2022-09-12T04:22:10.536Z,12.52
2022-09-12T04:23:10.551Z,12.51
2022-09-12T04:24:10.517Z,12.51
2022-09-12T04:25:10.527Z,12.48
2022-09-12T04:26:10.517Z,12.49
2022-09-12T04:27:10.502Z,12.49
2022-09-12T04:28:10.449Z,12.52
2022-09-12T04:29:10.452Z,12.55
2022-09-12T04:30:10.588Z,12.58
2022-09-12T04:31:10.524Z,12.58
2022-09-12T04:32:10.414Z,12.59
2022-09-12T04:33:10.395Z,12.61
2022-09-12T04:34:10.384Z,12.62
2022-09-12T04:35:10.385Z,12.62
2022-09-12T04:36:10.382Z,12.61
2022-09-12T04:37:10.346Z,12.62
2022-09-12T04:38:10.405Z,12.61
2022-09-12T04:39:10.400Z,12.62
2022-09-12T04:40:10.369Z,12.59
2022-09-12T04:41:10.281Z,12.56
2022-09-12T04:42:10.304Z,12.52
2022-09-12T04:43:14.389Z,12.52
2022-09-12T04:44:10.252Z,12.52
2022-09-12T04:45:10.263Z,12.54
2022-09-12T04:46:10.253Z,12.55
2022-09-12T04:47:10.238Z,12.56
2022-09-12T04:48:10.195Z,12.55
2022-09-12T04:49:10.202Z,12.54
2022-09-12T04:50:10.177Z,12.52
2022-09-12T04:51:10.151Z,12.51
2022-09-12T04:52:10.152Z,12.52
2022-09-12T04:53:10.131Z,12.51
2022-09-12T04:54:10.125Z,12.51
2022-09-12T04:55:10.126Z,12.54
2022-09-12T04:56:10.102Z,12.54
2022-09-12T04:57:10.117Z,12.54
2022-09-12T04:58:10.092Z,12.51
2022-09-12T04:59:10.061Z,12.55
2022-09-12T05:00:10.045Z,12.55
2022-09-12T05:01:10.098Z,12.61
2022-09-12T05:02:10.097Z,12.62
2022-09-12T05:03:10.011Z,12.62
2022-09-12T05:04:10.028Z,12.67
2022-09-12T05:05:09.993Z,12.71
2022-09-12T05:06:09.974Z,12.76
2022-09-12T05:07:10.091Z,12.79
2022-09-12T05:08:09.929Z,12.84
2022-09-12T05:09:09.929Z,12.89
2022-09-12T05:10:09.920Z,12.94
2022-09-12T05:11:09.964Z,12.94
2022-09-12T05:12:09.885Z,12.92
2022-09-12T05:13:09.889Z,12.94
2022-09-12T05:14:09.858Z,12.95
2022-09-12T05:15:09.867Z,12.98
2022-09-12T05:16:09.922Z,12.96
2022-09-12T05:17:09.814Z,12.99
2022-09-12T05:18:09.816Z,12.99
2022-09-12T05:19:09.819Z,12.98
2022-09-12T05:20:09.803Z,12.96
2022-09-12T05:21:09.766Z,13.01
2022-09-12T05:22:09.786Z,13.10
2022-09-12T05:23:09.742Z,13.12
2022-09-12T05:24:09.735Z,13.07
2022-09-12T05:25:09.736Z,13.04
2022-09-12T05:26:09.704Z,13.03
2022-09-12T05:27:09.696Z,13.09
2022-09-12T05:28:09.678Z,13.10
2022-09-12T05:29:09.678Z,13.24
2022-09-12T05:30:09.645Z,13.29
2022-09-12T05:31:09.657Z,13.36
2022-09-12T05:32:09.620Z,13.44
2022-09-12T05:33:09.655Z,13.50
2022-09-12T05:34:09.589Z,13.55
2022-09-12T05:35:09.593Z,13.59
2022-09-12T05:36:09.618Z,13.62
2022-09-12T05:37:09.557Z,13.66
2022-09-12T05:38:09.543Z,13.66
2022-09-12T05:39:09.536Z,13.65
2022-09-12T05:40:09.584Z,13.69
2022-09-12T05:41:12.405Z,13.69
2022-09-12T05:42:10.495Z,13.69
2022-09-12T05:43:09.482Z,13.62
2022-09-12T05:44:09.464Z,13.62
2022-09-12T05:45:09.452Z,13.66
2022-09-12T05:46:09.507Z,13.68
2022-09-12T05:47:09.430Z,13.71
2022-09-12T05:48:09.421Z,13.72
2022-09-12T05:49:09.411Z,13.73
2022-09-12T05:50:09.398Z,13.76
2022-09-12T05:51:09.427Z,13.80
2022-09-12T05:52:09.390Z,13.81
2022-09-12T05:53:09.373Z,13.79
2022-09-12T05:54:09.352Z,13.73
2022-09-12T05:55:09.353Z,13.79
2022-09-12T05:56:09.329Z,13.75
2022-09-12T05:57:09.340Z,13.80
2022-09-12T05:58:09.386Z,13.83
2022-09-12T05:59:09.281Z,13.84
2022-09-12T06:00:09.252Z,13.80
2022-09-12T06:01:09.320Z,13.76
2022-09-12T06:02:09.273Z,13.72
2022-09-12T06:03:09.221Z,13.71
2022-09-12T06:04:09.210Z,13.73
2022-09-12T06:05:09.185Z,13.72
2022-09-12T06:06:09.190Z,13.69
2022-09-12T06:07:09.168Z,13.69
2022-09-12T06:08:09.158Z,13.76
2022-09-12T06:09:09.169Z,13.76
2022-09-12T06:10:09.135Z,13.76
2022-09-12T06:11:09.119Z,13.75
2022-09-12T06:12:09.097Z,13.76
2022-09-12T06:13:09.087Z,13.76
2022-09-12T06:14:09.080Z,13.80
2022-09-12T06:15:09.067Z,13.81
2022-09-12T06:16:09.061Z,13.84
2022-09-12T06:17:09.057Z,13.87
2022-09-12T06:18:09.018Z,13.88
2022-09-12T06:19:09.025Z,13.93
2022-09-12T06:20:09.007Z,13.96
2022-09-12T06:21:08.989Z,14.01
2022-09-12T06:22:08.966Z,14.01
2022-09-12T06:23:08.975Z,14.05
2022-09-12T06:24:08.971Z,14.06
2022-09-12T06:25:08.958Z,14.09
2022-09-12T06:26:08.923Z,14.13
2022-09-12T06:27:08.932Z,14.16
2022-09-12T06:28:08.898Z,14.19
2022-09-12T06:29:08.874Z,14.23
2022-09-12T06:30:08.867Z,14.24
2022-09-12T06:31:08.890Z,14.27
2022-09-12T06:32:08.855Z,14.29
2022-09-12T06:33:08.836Z,14.35
2022-09-12T06:34:08.855Z,14.34
2022-09-12T06:35:08.832Z,14.34
2022-09-12T06:36:12.238Z,14.34
2022-09-12T06:37:08.774Z,14.36
2022-09-12T06:38:08.801Z,14.38
2022-09-12T06:39:08.749Z,14.42
2022-09-12T06:40:08.779Z,14.45
2022-09-12T06:41:08.722Z,14.49
2022-09-12T06:42:08.744Z,14.53
2022-09-12T06:43:08.694Z,14.56
2022-09-12T06:44:08.684Z,14.61
2022-09-12T06:45:08.684Z,14.66
2022-09-12T06:46:08.688Z,14.67
2022-09-12T06:47:08.662Z,14.72
2022-09-12T06:48:08.632Z,14.78
2022-09-12T06:49:08.617Z,14.82
2022-09-12T06:50:08.621Z,14.85
2022-09-12T06:51:08.600Z,14.87
2022-09-12T06:52:08.574Z,14.93
2022-09-12T06:53:08.575Z,14.93
2022-09-12T06:54:08.541Z,14.98
2022-09-12T06:55:08.541Z,15.01
2022-09-12T06:56:08.522Z,15.07
2022-09-12T06:57:08.534Z,15.07
2022-09-12T06:58:08.525Z,15.09
2022-09-12T06:59:08.493Z,15.12
2022-09-12T07:00:08.477Z,15.15
2022-09-12T07:01:08.542Z,15.13
2022-09-12T07:02:08.492Z,15.18
2022-09-12T07:03:08.464Z,15.19
2022-09-12T07:04:08.469Z,15.16
2022-09-12T07:05:08.408Z,15.16
2022-09-12T07:06:08.398Z,15.18
2022-09-12T07:07:08.422Z,15.22
2022-09-12T07:08:08.390Z,15.27
2022-09-12T07:09:08.367Z,15.33
2022-09-12T07:10:08.349Z,15.34
2022-09-12T07:11:08.349Z,15.38
2022-09-12T07:12:08.316Z,15.41
2022-09-12T07:13:08.299Z,15.46
2022-09-12T07:14:08.303Z,15.51
2022-09-12T07:15:08.270Z,15.53
2022-09-12T07:16:08.274Z,15.59
2022-09-12T07:17:08.292Z,15.64
2022-09-12T07:18:08.221Z,15.68
2022-09-12T07:19:08.228Z,15.70
2022-09-12T07:20:08.210Z,15.73
2022-09-12T07:21:08.200Z,15.78
2022-09-12T07:22:08.189Z,15.85
2022-09-12T07:23:08.162Z,15.89
2022-09-12T07:24:08.151Z,15.91
2022-09-12T07:25:08.171Z,15.93
2022-09-12T07:26:08.135Z,15.91
2022-09-12T07:27:08.125Z,15.89
2022-09-12T07:28:08.095Z,15.88
2022-09-12T07:29:32.777Z,15.91
2022-09-12T07:30:09.075Z,15.96
2022-09-12T07:31:08.118Z,15.98
2022-09-12T07:32:08.054Z,15.99
2022-09-12T07:33:08.053Z,16.01
2022-09-12T07:34:08.027Z,15.98
2022-09-12T07:35:08.020Z,15.93
2022-09-12T07:36:08.014Z,15.92
2022-09-12T07:37:07.998Z,15.95
2022-09-12T07:38:07.975Z,15.96
2022-09-12T07:39:07.964Z,16.01
2022-09-12T07:40:08.003Z,16.07
2022-09-12T07:41:07.956Z,16.13
2022-09-12T07:42:07.924Z,16.22
2022-09-12T07:43:07.917Z,16.29
2022-09-12T07:44:07.921Z,16.34
2022-09-12T07:45:07.893Z,16.42
2022-09-12T07:46:07.948Z,16.44
2022-09-12T07:47:07.875Z,16.48
2022-09-12T07:48:07.848Z,16.51
2022-09-12T07:49:08.489Z,16.52
2022-09-12T07:50:07.829Z,16.60
2022-09-12T07:51:07.836Z,16.65
2022-09-12T07:52:07.822Z,16.65
2022-09-12T07:53:07.785Z,16.65
2022-09-12T07:54:07.775Z,16.59
2022-09-12T07:55:07.755Z,16.54
2022-09-12T07:56:07.757Z,16.55
2022-09-12T07:57:07.734Z,16.59
2022-09-12T07:58:07.733Z,16.59
2022-09-12T07:59:07.711Z,16.63
2022-09-12T08:00:07.699Z,16.67
2022-09-12T08:01:07.719Z,16.67
2022-09-12T08:02:07.713Z,16.69
2022-09-12T08:03:07.655Z,16.70
2022-09-12T08:04:07.645Z,16.69
2022-09-12T08:05:07.633Z,16.72
2022-09-12T08:06:07.623Z,16.72
2022-09-12T08:07:07.603Z,16.75
2022-09-12T08:08:07.589Z,16.78
2022-09-12T08:09:07.582Z,16.80
2022-09-12T08:10:07.593Z,16.82
2022-09-12T08:11:07.589Z,16.85
2022-09-12T08:12:07.533Z,16.90
2022-09-12T08:13:10.735Z,16.91
2022-09-12T08:14:07.540Z,16.91
2022-09-12T08:15:14.524Z,16.91
2022-09-12T08:16:07.537Z,16.95
2022-09-12T08:17:07.471Z,17.02
2022-09-12T08:18:07.454Z,17.12
2022-09-12T08:19:07.441Z,17.17
2022-09-12T08:20:07.436Z,17.15
2022-09-12T08:21:07.425Z,17.17
2022-09-12T08:22:07.403Z,17.17
2022-09-12T08:23:07.396Z,17.18
2022-09-12T08:24:07.403Z,17.21
2022-09-12T08:25:07.373Z,17.27
2022-09-12T08:26:07.363Z,17.35
2022-09-12T08:27:07.353Z,17.38
2022-09-12T08:28:07.332Z,17.35
2022-09-12T08:29:07.304Z,17.39
2022-09-12T08:30:07.310Z,17.36
2022-09-12T08:31:07.386Z,17.38
2022-09-12T08:32:07.279Z,17.38
2022-09-12T08:33:07.248Z,17.36
2022-09-12T08:34:07.244Z,17.28
2022-09-12T08:35:07.233Z,17.28
2022-09-12T08:36:07.225Z,17.32
2022-09-12T08:37:07.221Z,17.32
2022-09-12T08:38:07.193Z,17.32
2022-09-12T08:39:07.180Z,17.33
2022-09-12T08:40:07.328Z,17.36
2022-09-12T08:41:07.159Z,17.38
2022-09-12T08:42:07.237Z,17.42
2022-09-12T08:43:07.134Z,17.49
2022-09-12T08:44:07.130Z,17.58
2022-09-12T08:45:07.133Z,17.62
2022-09-12T08:46:07.116Z,17.65
2022-09-12T08:47:07.090Z,17.73
2022-09-12T08:48:07.071Z,17.76
2022-09-12T08:49:07.069Z,17.74
2022-09-12T08:50:07.044Z,17.66
2022-09-12T08:51:07.016Z,17.68
2022-09-12T08:52:07.020Z,17.68
2022-09-12T08:53:06.996Z,17.68
2022-09-12T08:54:07.001Z,17.66
2022-09-12T08:55:06.979Z,17.70
2022-09-12T08:56:06.959Z,17.71
2022-09-12T08:57:06.942Z,17.74
2022-09-12T08:58:06.939Z,17.80
2022-09-12T08:59:06.909Z,17.80
2022-09-12T09:00:06.923Z,17.86
2022-09-12T09:01:07.042Z,17.84
2022-09-12T09:02:06.920Z,17.83
2022-09-12T09:03:06.870Z,17.83
2022-09-12T09:04:06.847Z,17.84
2022-09-12T09:05:06.824Z,17.87
2022-09-12T09:06:06.840Z,17.87
2022-09-12T09:07:06.815Z,17.91
2022-09-12T09:08:06.808Z,17.98
2022-09-12T09:09:06.800Z,18.01
2022-09-12T09:10:06.794Z,18.05
2022-09-12T09:11:06.752Z,18.05
2022-09-12T09:12:06.760Z,18.09
2022-09-12T09:13:06.737Z,18.11
2022-09-12T09:14:06.718Z,18.14
2022-09-12T09:15:06.716Z,18.20
2022-09-12T09:16:06.779Z,18.26
2022-09-12T09:17:06.728Z,18.36
2022-09-12T09:18:06.699Z,18.39
2022-09-12T09:19:06.669Z,18.41
2022-09-12T09:20:06.838Z,18.44
2022-09-12T09:21:06.703Z,18.49
2022-09-12T09:22:06.627Z,18.56
2022-09-12T09:23:06.622Z,18.64
2022-09-12T09:24:06.595Z,18.68
2022-09-12T09:25:06.580Z,18.72
2022-09-12T09:26:06.590Z,18.71
2022-09-12T09:27:23.505Z,18.65
2022-09-12T09:28:07.546Z,18.59
2022-09-12T09:29:06.536Z,18.56
2022-09-12T09:30:06.528Z,18.53
2022-09-12T09:31:06.551Z,18.64
2022-09-12T09:32:06.508Z,18.66
2022-09-12T09:33:06.477Z,18.59
2022-09-12T09:34:06.462Z,18.54
2022-09-12T09:35:06.445Z,18.38
2022-09-12T09:36:06.445Z,18.25
2022-09-12T09:37:06.414Z,18.20
2022-09-12T09:38:06.406Z,18.29
2022-09-12T09:39:06.406Z,18.38
2022-09-12T09:40:06.458Z,18.44
2022-09-12T09:41:06.364Z,18.41
2022-09-12T09:42:06.362Z,18.41
2022-09-12T09:43:06.347Z,18.44
2022-09-12T09:45:06.347Z,18.44
2022-09-12T09:46:06.368Z,18.41
2022-09-12T09:47:06.304Z,18.36
2022-09-12T09:48:06.356Z,18.35
2022-09-12T09:49:06.326Z,18.36
2022-09-12T09:50:06.275Z,18.35
2022-09-12T09:51:06.233Z,18.41
2022-09-12T09:52:06.540Z,18.47
2022-09-12T09:53:06.204Z,18.56
2022-09-12T09:54:06.193Z,18.69
2022-09-12T09:55:06.183Z,18.79
2022-09-12T09:56:06.233Z,18.86
2022-09-12T09:57:06.164Z,18.79
2022-09-12T09:58:06.245Z,18.82
2022-09-12T09:59:06.160Z,18.86
2022-09-12T10:00:06.129Z,18.84
2022-09-12T10:01:06.199Z,18.82
2022-09-12T10:02:06.135Z,18.79
2022-09-12T10:03:08.243Z,18.86
2022-09-12T10:04:07.093Z,18.91
2022-09-12T10:05:06.059Z,18.97
2022-09-12T10:06:06.055Z,19.02
2022-09-12T10:07:06.034Z,19.01
2022-09-12T10:08:06.053Z,19.05
2022-09-12T10:09:06.000Z,19.07
2022-09-12T10:10:06.006Z,19.07
2022-09-12T10:11:05.983Z,19.10
2022-09-12T10:12:05.971Z,19.17
2022-09-12T10:13:05.965Z,19.23
2022-09-12T10:14:05.942Z,19.16
2022-09-12T10:15:05.949Z,19.06
2022-09-12T10:16:05.954Z,19.01
2022-09-12T10:17:05.933Z,18.97
2022-09-12T10:18:05.913Z,18.94
2022-09-12T10:19:05.879Z,18.96
2022-09-12T10:20:22.162Z,19.05
2022-09-12T10:21:06.831Z,19.12
2022-09-12T10:22:05.839Z,19.13
2022-09-12T10:23:05.853Z,19.15
2022-09-12T10:24:05.812Z,19.12
2022-09-12T10:25:05.793Z,19.16
2022-09-12T10:26:05.785Z,19.25
2022-09-12T10:27:05.763Z,19.31
2022-09-12T10:28:05.763Z,19.40
2022-09-12T10:29:05.763Z,19.40
2022-09-12T10:30:05.743Z,19.40
2022-09-12T10:31:05.792Z,19.46
2022-09-12T10:32:05.744Z,19.49
2022-09-12T10:33:05.701Z,19.45
2022-09-12T10:34:05.701Z,19.39
2022-09-12T10:35:05.738Z,19.34
2022-09-12T10:36:05.680Z,19.28
2022-09-12T10:37:05.650Z,19.17
2022-09-12T10:38:05.651Z,19.16
2022-09-12T10:39:05.614Z,19.21
2022-09-12T10:40:05.648Z,19.34
2022-09-12T10:41:05.611Z,19.46
2022-09-12T10:42:05.584Z,19.57
2022-09-12T10:43:05.561Z,19.70
2022-09-12T10:44:05.542Z,19.76
2022-09-12T10:45:05.540Z,19.70
2022-09-12T10:46:05.610Z,19.68
2022-09-12T10:47:05.503Z,19.68
2022-09-12T10:48:07.710Z,19.65
2022-09-12T10:49:05.474Z,19.62
2022-09-12T10:50:05.501Z,19.53
2022-09-12T10:51:05.448Z,19.40
2022-09-12T10:52:05.434Z,19.30
2022-09-12T10:53:05.430Z,19.27
2022-09-12T10:54:05.413Z,19.25
2022-09-12T10:55:05.409Z,19.24
2022-09-12T10:56:05.394Z,19.24
2022-09-12T10:57:05.369Z,19.27
2022-09-12T10:58:05.363Z,19.40
2022-09-12T10:59:05.369Z,19.57
2022-09-12T11:00:05.337Z,19.68
2022-09-12T11:01:05.368Z,19.79
2022-09-12T11:02:05.373Z,19.89
2022-09-12T11:03:05.290Z,19.97
2022-09-12T11:04:05.273Z,20.02
2022-09-12T11:05:05.271Z,20.10
2022-09-12T11:06:05.276Z,20.13
2022-09-12T11:07:05.243Z,20.20
2022-09-12T11:08:05.233Z,20.26
2022-09-12T11:09:05.215Z,20.27
2022-09-12T11:10:05.217Z,20.34
2022-09-12T11:11:05.190Z,20.41
2022-09-12T11:12:05.182Z,20.58
2022-09-12T11:13:05.169Z,20.72
2022-09-12T11:14:05.166Z,20.76
2022-09-12T11:15:05.142Z,20.83
2022-09-12T11:16:05.221Z,20.78
2022-09-12T11:17:05.111Z,20.75
2022-09-12T11:18:05.090Z,20.78
2022-09-12T11:19:05.079Z,20.78
2022-09-12T11:20:05.089Z,20.71
2022-09-12T11:21:05.058Z,20.58
2022-09-12T11:22:05.053Z,20.48
2022-09-12T11:23:05.029Z,20.50
2022-09-12T11:24:05.021Z,20.60
2022-09-12T11:25:05.006Z,20.57
2022-09-12T11:26:05.044Z,20.57
2022-09-12T11:27:05.010Z,20.57
2022-09-12T11:28:04.970Z,20.63
2022-09-12T11:29:04.959Z,20.68
2022-09-12T11:30:04.940Z,20.79
2022-09-12T11:31:04.996Z,20.91
2022-09-12T11:32:04.909Z,20.97
2022-09-12T11:33:04.896Z,20.93
2022-09-12T11:34:04.887Z,20.83
2022-09-12T11:35:04.875Z,20.78
2022-09-12T11:36:04.878Z,20.63
2022-09-12T11:37:09.867Z,20.56
2022-09-12T11:38:05.827Z,20.53
2022-09-12T11:39:04.820Z,20.41
2022-09-12T11:40:04.846Z,20.40
2022-09-12T11:41:04.799Z,20.44
2022-09-12T11:42:04.779Z,20.50
2022-09-12T11:43:04.769Z,20.66
2022-09-12T11:44:04.748Z,20.76
2022-09-12T11:45:04.741Z,20.87
2022-09-12T11:46:04.741Z,20.87
2022-09-12T11:47:04.720Z,20.63
2022-09-12T11:48:04.711Z,20.40
2022-09-12T11:49:04.679Z,20.41
2022-09-12T11:50:04.671Z,20.44
2022-09-12T11:51:04.671Z,20.48
2022-09-12T11:52:04.638Z,20.37
2022-09-12T11:53:04.657Z,20.34
2022-09-12T11:54:04.629Z,20.31
2022-09-12T11:55:04.638Z,20.27
2022-09-12T11:56:04.607Z,20.27
2022-09-12T11:57:04.597Z,20.41
2022-09-12T11:58:04.638Z,20.54
2022-09-12T11:59:04.568Z,20.64
2022-09-12T12:00:04.568Z,20.78
2022-09-12T12:01:04.569Z,20.90
2022-09-12T12:02:04.642Z,20.94
2022-09-12T12:03:04.512Z,20.97
2022-09-12T12:04:04.696Z,20.93
2022-09-12T12:05:05.399Z,20.96
2022-09-12T12:06:04.528Z,20.98
2022-09-12T12:07:04.516Z,21.01
2022-09-12T12:08:04.496Z,21.09
2022-09-12T12:09:04.451Z,21.21
2022-09-12T12:10:04.436Z,21.28
2022-09-12T12:11:04.494Z,21.31
2022-09-12T12:12:05.132Z,21.28
2022-09-12T12:13:04.448Z,21.30
2022-09-12T12:14:04.408Z,21.31
2022-09-12T12:15:04.357Z,21.27
2022-09-12T12:16:04.415Z,21.28
2022-09-12T12:17:04.318Z,21.19
2022-09-12T12:18:04.320Z,21.18
2022-09-12T12:19:07.575Z,21.26
2022-09-12T12:20:08.322Z,21.26
2022-09-12T12:21:04.268Z,21.27
2022-09-12T12:22:04.257Z,21.28
2022-09-12T12:23:04.255Z,21.28
2022-09-12T12:24:04.239Z,21.33
2022-09-12T12:25:04.230Z,21.42
2022-09-12T12:26:04.206Z,21.42
2022-09-12T12:27:04.195Z,21.49
2022-09-12T12:28:04.182Z,21.51
2022-09-12T12:29:04.176Z,21.55
2022-09-12T12:30:04.196Z,21.46
2022-09-12T12:31:04.216Z,21.37
2022-09-12T12:32:04.143Z,21.33
2022-09-12T12:33:04.126Z,21.19
2022-09-12T12:34:04.122Z,21.16
2022-09-12T12:35:04.131Z,21.21
2022-09-12T12:36:04.125Z,21.26
2022-09-12T12:37:07.252Z,21.21
2022-09-12T12:38:04.077Z,21.16
2022-09-12T12:39:04.059Z,21.09
2022-09-12T12:40:04.058Z,20.93
2022-09-12T12:41:04.017Z,20.85
2022-09-12T12:42:04.007Z,20.87
2022-09-12T12:43:04.004Z,20.90
2022-09-12T12:44:03.974Z,20.87
2022-09-12T12:45:03.960Z,20.87
2022-09-12T12:46:04.043Z,20.87
2022-09-12T12:47:03.956Z,20.61
2022-09-12T12:48:08.049Z,20.46
2022-09-12T12:49:03.907Z,20.42
2022-09-12T12:50:03.896Z,20.42
2022-09-12T12:51:03.906Z,20.46
2022-09-12T12:52:03.867Z,20.51
2022-09-12T12:53:03.857Z,20.50
2022-09-12T12:54:03.843Z,20.53
2022-09-12T12:55:03.833Z,20.56